KEND/END METAR and TAF weather

Enter ICAO airport designator
Station Type Date Time Source
KEND METAR 2021/04/17 01:56 UTC NOAA

KEND 170156Z AUTO 33016G23KT 10SM OVC017 07/04 A3005 RMK AO2 CIG 014 RWY35C SLP180 T00680041 $


Station Type Date Time Source
KEND Decoded METAR 2021/04/17 01:56 UTC NOAA

Vance Air Force Base / Enid, OK, United States (KEND) 36-20N 097-55W
Apr 16, 2021 - 09:56 PM EDT / 2021.04.17 0156 UTC
Wind: from the NNW (330 degrees) at 18 MPH (16 KT) gusting to 26 MPH (23 KT):0
Visibility: 10 mile(s):0
Sky conditions: overcast
Temperature: 44.2 F (6.8 C)
Dew Point: 39.4 F (4.1 C)
Relative Humidity: 82%
Pressure (altimeter): 30.05 in. Hg (1017 hPa)
ob: KEND 170156Z AUTO 33016G23KT 10SM OVC017 07/04 A3005 RMK AO2 CIG 014 RWY35C SLP180 T00680041
cycle: 2

Station Type Date Time Source
KEND TAF 2021/04/17 01:59 UTC NOAA

TAF KEND 1701/1724 33015G25KT 9999 OVC023 620803 510053 QNH2996INS
BECMG 1706/1707 33012KT 8000 BR BKN015 QNH3003INS
BECMG 1714/1715 34015G25KT 9999 NSW BKN013 QNH3012INS
BECMG 1717/1718 34015G25KT 9999 BKN025 QNH3013INS
BECMG 1723/1724 36012KT 9999 BKN040 QNH3009INS TX11/1718Z TN01/1712Z LAST NO
AMDS AFT 1701 NEXT 1815

Example: see airport list